sensor_id;sensor_type;location;lat;lon;timestamp;pressure;altitude;pressure_sealevel;temperature;humidity
64192;BME280;50497;50.720;-2.084;2022-10-16T00:00:34;100740.44;;;12.26;100.00
64192;BME280;50497;50.720;-2.084;2022-10-16T00:02:59;100741.94;;;11.81;100.00
64192;BME280;50497;50.720;-2.084;2022-10-16T00:05:25;100715.47;;;11.40;100.00
64192;BME280;50497;50.720;-2.084;2022-10-16T00:07:50;100727.69;;;11.28;100.00
64192;BME280;50497;50.720;-2.084;2022-10-16T00:10:16;100719.09;;;11.21;100.00
64192;BME280;50497;50.720;-2.084;2022-10-16T00:12:41;100727.41;;;11.15;100.00
64192;BME280;50497;50.720;-2.084;2022-10-16T00:15:07;100728.69;;;11.08;100.00
64192;BME280;50497;50.720;-2.084;2022-10-16T00:17:33;100728.91;;;11.03;100.00
64192;BME280;50497;50.720;-2.084;2022-10-16T00:19:58;100736.28;;;10.98;100.00
64192;BME280;50497;50.720;-2.084;2022-10-16T00:22:24;100744.41;;;10.97;100.00
64192;BME280;50497;50.720;-2.084;2022-10-16T00:24:49;100749.91;;;10.94;100.00
64192;BME280;50497;50.720;-2.084;2022-10-16T00:27:15;100770.16;;;10.99;100.00
64192;BME280;50497;50.720;-2.084;2022-10-16T00:29:41;100763.34;;;10.92;100.00
64192;BME280;50497;50.720;-2.084;2022-10-16T00:32:07;100763.59;;;10.87;100.00
64192;BME280;50497;50.720;-2.084;2022-10-16T00:34:32;100763.75;;;10.84;100.00
64192;BME280;50497;50.720;-2.084;2022-10-16T00:36:58;100751.38;;;10.63;100.00
64192;BME280;50497;50.720;-2.084;2022-10-16T00:39:23;100751.47;;;10.61;100.00
64192;BME280;50497;50.720;-2.084;2022-10-16T00:41:50;100758.59;;;10.61;100.00
64192;BME280;50497;50.720;-2.084;2022-10-16T00:44:44;100765.97;;;10.56;100.00
64192;BME280;50497;50.720;-2.084;2022-10-16T00:47:19;100765.31;;;10.50;100.00
64192;BME280;50497;50.720;-2.084;2022-10-16T00:49:46;100758.41;;;10.46;100.00
64192;BME280;50497;50.720;-2.084;2022-10-16T00:52:13;100760.50;;;10.40;100.00
64192;BME280;50497;50.720;-2.084;2022-10-16T00:54:39;100764.38;;;10.32;100.00
64192;BME280;50497;50.720;-2.084;2022-10-16T00:57:06;100760.00;;;10.30;100.00
64192;BME280;50497;50.720;-2.084;2022-10-16T00:59:37;100755.72;;;10.26;100.00
64192;BME280;50497;50.720;-2.084;2022-10-16T01:02:05;100753.63;;;10.13;100.00
64192;BME280;50497;50.720;-2.084;2022-10-16T01:04:35;100764.31;;;10.13;100.00
64192;BME280;50497;50.720;-2.084;2022-10-16T01:09:50;100756.22;;;10.15;100.00
64192;BME280;50497;50.720;-2.084;2022-10-16T01:14:56;100750.63;;;10.21;100.00
64192;BME280;50497;50.720;-2.084;2022-10-16T01:23:04;100768.72;;;10.35;100.00
64192;BME280;50497;50.720;-2.084;2022-10-16T01:28:24;100749.59;;;10.24;100.00
64192;BME280;50497;50.720;-2.084;2022-10-16T01:30:53;100763.31;;;10.37;100.00
64192;BME280;50497;50.720;-2.084;2022-10-16T01:33:28;100769.69;;;10.53;100.00
64192;BME280;50497;50.720;-2.084;2022-10-16T01:36:00;100766.63;;;10.61;100.00
64192;BME280;50497;50.720;-2.084;2022-10-16T01:38:32;100760.47;;;10.59;100.00
64192;BME280;50497;50.720;-2.084;2022-10-16T01:41:25;100753.34;;;10.59;100.00
64192;BME280;50497;50.720;-2.084;2022-10-16T01:44:01;100769.44;;;10.77;100.00
64192;BME280;50497;50.720;-2.084;2022-10-16T01:46:30;100755.72;;;10.65;100.00
64192;BME280;50497;50.720;-2.084;2022-10-16T01:48:57;100761.50;;;10.75;100.00
64192;BME280;50497;50.720;-2.084;2022-10-16T01:51:24;100766.00;;;10.75;100.00
64192;BME280;50497;50.720;-2.084;2022-10-16T01:53:54;100752.31;;;10.62;100.00
64192;BME280;50497;50.720;-2.084;2022-10-16T01:56:21;100765.56;;;10.65;100.00
64192;BME280;50497;50.720;-2.084;2022-10-16T02:01:27;100757.56;;;10.82;100.00
64192;BME280;50497;50.720;-2.084;2022-10-16T02:03:57;100752.78;;;10.89;100.00
64192;BME280;50497;50.720;-2.084;2022-10-16T02:06:25;100773.47;;;11.04;100.00
64192;BME280;50497;50.720;-2.084;2022-10-16T02:08:51;100775.84;;;11.10;100.00
64192;BME280;50497;50.720;-2.084;2022-10-16T02:11:16;100774.41;;;11.22;100.00
64192;BME280;50497;50.720;-2.084;2022-10-16T02:13:48;100781.88;;;11.16;100.00
64192;BME280;50497;50.720;-2.084;2022-10-16T02:16:16;100781.13;;;11.12;100.00
64192;BME280;50497;50.720;-2.084;2022-10-16T02:18:42;100782.88;;;11.13;100.00
64192;BME280;50497;50.720;-2.084;2022-10-16T02:21:38;100769.41;;;11.15;100.00
64192;BME280;50497;50.720;-2.084;2022-10-16T02:24:14;100780.81;;;11.18;100.00
64192;BME280;50497;50.720;-2.084;2022-10-16T02:29:17;100791.03;;;11.29;100.00
64192;BME280;50497;50.720;-2.084;2022-10-16T02:31:47;100779.97;;;11.18;100.00
64192;BME280;50497;50.720;-2.084;2022-10-16T02:34:16;100773.91;;;11.14;100.00
64192;BME280;50497;50.720;-2.084;2022-10-16T02:36:42;100783.22;;;11.24;100.00
64192;BME280;50497;50.720;-2.084;2022-10-16T02:39:10;100784.63;;;11.32;100.00
64192;BME280;50497;50.720;-2.084;2022-10-16T02:41:36;100785.59;;;11.31;100.00
64192;BME280;50497;50.720;-2.084;2022-10-16T02:44:02;100798.16;;;11.28;100.00
64192;BME280;50497;50.720;-2.084;2022-10-16T02:46:27;100801.47;;;11.34;100.00
64192;BME280;50497;50.720;-2.084;2022-10-16T02:48:53;100789.75;;;11.36;100.00
64192;BME280;50497;50.720;-2.084;2022-10-16T02:51:18;100807.81;;;11.33;100.00
64192;BME280;50497;50.720;-2.084;2022-10-16T02:53:43;100814.84;;;11.16;100.00
64192;BME280;50497;50.720;-2.084;2022-10-16T02:56:09;100806.75;;;11.18;100.00
64192;BME280;50497;50.720;-2.084;2022-10-16T02:58:34;100818.03;;;11.24;100.00
64192;BME280;50497;50.720;-2.084;2022-10-16T03:01:00;100821.84;;;11.19;100.00
64192;BME280;50497;50.720;-2.084;2022-10-16T03:03:25;100818.97;;;11.23;100.00
64192;BME280;50497;50.720;-2.084;2022-10-16T03:05:50;100804.34;;;11.12;100.00
64192;BME280;50497;50.720;-2.084;2022-10-16T03:08:16;100807.19;;;11.08;100.00
64192;BME280;50497;50.720;-2.084;2022-10-16T03:10:42;100831.56;;;11.21;100.00
64192;BME280;50497;50.720;-2.084;2022-10-16T03:13:07;100825.09;;;11.25;100.00
64192;BME280;50497;50.720;-2.084;2022-10-16T03:15:33;100813.25;;;11.12;100.00
64192;BME280;50497;50.720;-2.084;2022-10-16T03:17:59;100814.78;;;11.18;100.00
64192;BME280;50497;50.720;-2.084;2022-10-16T03:20:25;100822.19;;;11.13;100.00
64192;BME280;50497;50.720;-2.084;2022-10-16T03:22:50;100817.00;;;11.27;100.00
64192;BME280;50497;50.720;-2.084;2022-10-16T03:25:16;100816.13;;;11.26;100.00
64192;BME280;50497;50.720;-2.084;2022-10-16T03:27:41;100834.59;;;11.33;100.00
64192;BME280;50497;50.720;-2.084;2022-10-16T03:30:07;100828.44;;;11.31;100.00
64192;BME280;50497;50.720;-2.084;2022-10-16T03:32:33;100832.19;;;11.26;100.00
64192;BME280;50497;50.720;-2.084;2022-10-16T03:34:58;100830.78;;;11.19;100.00
64192;BME280;50497;50.720;-2.084;2022-10-16T03:37:24;100811.81;;;11.05;100.00
64192;BME280;50497;50.720;-2.084;2022-10-16T03:39:49;100833.09;;;11.08;100.00
64192;BME280;50497;50.720;-2.084;2022-10-16T03:42:15;100821.38;;;10.91;100.00
64192;BME280;50497;50.720;-2.084;2022-10-16T03:44:40;100831.81;;;10.98;100.00
64192;BME280;50497;50.720;-2.084;2022-10-16T03:47:06;100841.06;;;11.09;100.00
64192;BME280;50497;50.720;-2.084;2022-10-16T03:49:31;100830.22;;;11.13;100.00
64192;BME280;50497;50.720;-2.084;2022-10-16T03:51:57;100838.31;;;11.11;100.00
64192;BME280;50497;50.720;-2.084;2022-10-16T03:54:22;100852.56;;;11.12;100.00
64192;BME280;50497;50.720;-2.084;2022-10-16T03:56:48;100855.53;;;11.05;100.00
64192;BME280;50497;50.720;-2.084;2022-10-16T03:59:13;100846.97;;;10.97;100.00
64192;BME280;50497;50.720;-2.084;2022-10-16T04:01:39;100859.44;;;10.98;100.00
64192;BME280;50497;50.720;-2.084;2022-10-16T04:04:04;100859.59;;;10.95;100.00
64192;BME280;50497;50.720;-2.084;2022-10-16T04:06:30;100866.25;;;10.86;100.00
64192;BME280;50497;50.720;-2.084;2022-10-16T04:08:55;100886.94;;;10.83;100.00
64192;BME280;50497;50.720;-2.084;2022-10-16T04:11:21;100892.63;;;10.75;100.00
64192;BME280;50497;50.720;-2.084;2022-10-16T04:13:47;100888.50;;;10.68;100.00
64192;BME280;50497;50.720;-2.084;2022-10-16T04:16:12;100883.56;;;10.59;100.00
64192;BME280;50497;50.720;-2.084;2022-10-16T04:18:38;100887.47;;;10.70;100.00
64192;BME280;50497;50.720;-2.084;2022-10-16T04:21:07;100885.75;;;10.69;100.00
64192;BME280;50497;50.720;-2.084;2022-10-16T04:23:33;100903.41;;;10.73;100.00
64192;BME280;50497;50.720;-2.084;2022-10-16T04:25:59;100903.06;;;10.81;100.00
64192;BME280;50497;50.720;-2.084;2022-10-16T04:28:25;100905.59;;;10.84;100.00
64192;BME280;50497;50.720;-2.084;2022-10-16T04:30:51;100899.09;;;10.90;100.00
64192;BME280;50497;50.720;-2.084;2022-10-16T04:33:16;100895.03;;;10.81;100.00
64192;BME280;50497;50.720;-2.084;2022-10-16T04:35:41;100882.88;;;10.74;100.00
64192;BME280;50497;50.720;-2.084;2022-10-16T04:38:07;100889.28;;;10.70;100.00
64192;BME280;50497;50.720;-2.084;2022-10-16T04:40:32;100907.44;;;10.63;100.00
64192;BME280;50497;50.720;-2.084;2022-10-16T04:42:58;100893.72;;;10.50;100.00
64192;BME280;50497;50.720;-2.084;2022-10-16T04:45:24;100917.69;;;10.53;100.00
64192;BME280;50497;50.720;-2.084;2022-10-16T04:47:49;100916.22;;;10.46;100.00
64192;BME280;50497;50.720;-2.084;2022-10-16T04:50:15;100920.47;;;10.30;100.00
64192;BME280;50497;50.720;-2.084;2022-10-16T04:52:40;100929.69;;;10.23;100.00
64192;BME280;50497;50.720;-2.084;2022-10-16T04:55:06;100920.53;;;10.08;100.00
64192;BME280;50497;50.720;-2.084;2022-10-16T04:57:32;100935.25;;;9.96;100.00
64192;BME280;50497;50.720;-2.084;2022-10-16T04:59:58;100940.13;;;9.86;100.00
64192;BME280;50497;50.720;-2.084;2022-10-16T05:02:24;100951.75;;;9.85;100.00
64192;BME280;50497;50.720;-2.084;2022-10-16T05:04:50;100953.84;;;9.77;100.00
64192;BME280;50497;50.720;-2.084;2022-10-16T05:07:16;100948.75;;;9.71;100.00
64192;BME280;50497;50.720;-2.084;2022-10-16T05:09:41;100947.03;;;9.70;100.00
64192;BME280;50497;50.720;-2.084;2022-10-16T05:12:07;100942.78;;;9.64;100.00
64192;BME280;50497;50.720;-2.084;2022-10-16T05:14:32;100970.47;;;9.63;100.00
64192;BME280;50497;50.720;-2.084;2022-10-16T05:16:59;100966.16;;;9.59;100.00
64192;BME280;50497;50.720;-2.084;2022-10-16T05:19:25;100972.09;;;9.43;100.00
64192;BME280;50497;50.720;-2.084;2022-10-16T05:21:50;100981.03;;;9.42;100.00
64192;BME280;50497;50.720;-2.084;2022-10-16T05:24:16;100996.13;;;9.43;100.00
64192;BME280;50497;50.720;-2.084;2022-10-16T05:26:41;100983.44;;;9.27;100.00
64192;BME280;50497;50.720;-2.084;2022-10-16T05:29:06;101003.78;;;9.29;100.00
64192;BME280;50497;50.720;-2.084;2022-10-16T05:31:32;101008.56;;;9.21;100.00
64192;BME280;50497;50.720;-2.084;2022-10-16T05:33:58;101005.50;;;9.08;100.00
64192;BME280;50497;50.720;-2.084;2022-10-16T05:36:25;101005.00;;;8.97;100.00
64192;BME280;50497;50.720;-2.084;2022-10-16T05:38:51;100984.03;;;8.86;100.00
64192;BME280;50497;50.720;-2.084;2022-10-16T05:41:17;101007.25;;;8.84;100.00
64192;BME280;50497;50.720;-2.084;2022-10-16T05:43:47;100985.63;;;8.66;100.00
64192;BME280;50497;50.720;-2.084;2022-10-16T05:46:13;100994.88;;;8.56;100.00
64192;BME280;50497;50.720;-2.084;2022-10-16T05:48:39;101000.25;;;8.55;100.00
64192;BME280;50497;50.720;-2.084;2022-10-16T05:51:07;100992.44;;;8.50;100.00
64192;BME280;50497;50.720;-2.084;2022-10-16T05:53:35;101015.16;;;8.62;100.00
64192;BME280;50497;50.720;-2.084;2022-10-16T05:56:01;101015.41;;;8.54;100.00
64192;BME280;50497;50.720;-2.084;2022-10-16T05:58:34;101003.56;;;8.35;100.00
64192;BME280;50497;50.720;-2.084;2022-10-16T06:01:03;101003.84;;;8.27;100.00
64192;BME280;50497;50.720;-2.084;2022-10-16T06:03:29;101015.47;;;8.24;100.00
64192;BME280;50497;50.720;-2.084;2022-10-16T06:05:55;101025.22;;;8.25;100.00
64192;BME280;50497;50.720;-2.084;2022-10-16T06:08:21;101018.44;;;8.15;100.00
64192;BME280;50497;50.720;-2.084;2022-10-16T06:10:47;101019.56;;;8.08;100.00
64192;BME280;50497;50.720;-2.084;2022-10-16T06:13:13;101030.31;;;8.05;100.00
64192;BME280;50497;50.720;-2.084;2022-10-16T06:15:40;101019.88;;;7.99;100.00
64192;BME280;50497;50.720;-2.084;2022-10-16T06:18:10;101018.28;;;7.93;100.00
64192;BME280;50497;50.720;-2.084;2022-10-16T06:20:36;101018.31;;;7.91;100.00
64192;BME280;50497;50.720;-2.084;2022-10-16T06:23:02;101030.53;;;7.99;100.00
64192;BME280;50497;50.720;-2.084;2022-10-16T06:25:29;101023.88;;;7.85;100.00
64192;BME280;50497;50.720;-2.084;2022-10-16T06:27:55;101022.34;;;7.76;100.00
64192;BME280;50497;50.720;-2.084;2022-10-16T06:30:20;101032.22;;;7.73;100.00
64192;BME280;50497;50.720;-2.084;2022-10-16T06:32:46;101053.47;;;7.74;100.00
64192;BME280;50497;50.720;-2.084;2022-10-16T06:35:11;101034.28;;;7.63;100.00
64192;BME280;50497;50.720;-2.084;2022-10-16T06:37:37;101047.94;;;7.52;100.00
64192;BME280;50497;50.720;-2.084;2022-10-16T06:40:02;101047.09;;;7.50;100.00
64192;BME280;50497;50.720;-2.084;2022-10-16T06:42:29;101043.75;;;7.44;100.00
64192;BME280;50497;50.720;-2.084;2022-10-16T06:44:55;101047.44;;;7.39;100.00
64192;BME280;50497;50.720;-2.084;2022-10-16T06:47:20;101075.69;;;7.44;100.00
64192;BME280;50497;50.720;-2.084;2022-10-16T06:49:46;101072.91;;;7.48;100.00
64192;BME280;50497;50.720;-2.084;2022-10-16T06:52:11;101062.53;;;7.39;100.00
64192;BME280;50497;50.720;-2.084;2022-10-16T06:54:36;101074.69;;;7.48;100.00
64192;BME280;50497;50.720;-2.084;2022-10-16T06:57:02;101063.28;;;7.44;100.00
64192;BME280;50497;50.720;-2.084;2022-10-16T06:59:27;101060.66;;;7.43;100.00
64192;BME280;50497;50.720;-2.084;2022-10-16T07:01:53;101062.38;;;7.44;100.00
64192;BME280;50497;50.720;-2.084;2022-10-16T07:04:18;101077.91;;;7.59;100.00
64192;BME280;50497;50.720;-2.084;2022-10-16T07:06:43;101071.06;;;7.50;100.00
64192;BME280;50497;50.720;-2.084;2022-10-16T07:09:10;101099.13;;;7.62;100.00
64192;BME280;50497;50.720;-2.084;2022-10-16T07:11:37;101086.72;;;7.61;100.00
64192;BME280;50497;50.720;-2.084;2022-10-16T07:14:03;101098.94;;;7.68;100.00
64192;BME280;50497;50.720;-2.084;2022-10-16T07:16:36;101100.91;;;7.62;100.00
64192;BME280;50497;50.720;-2.084;2022-10-16T07:19:02;101104.59;;;7.57;100.00
64192;BME280;50497;50.720;-2.084;2022-10-16T07:21:30;101098.44;;;7.55;100.00
64192;BME280;50497;50.720;-2.084;2022-10-16T07:23:58;101113.31;;;7.63;100.00
64192;BME280;50497;50.720;-2.084;2022-10-16T07:26:25;101109.31;;;7.48;100.00
64192;BME280;50497;50.720;-2.084;2022-10-16T07:28:51;101124.91;;;7.60;100.00
64192;BME280;50497;50.720;-2.084;2022-10-16T07:31:18;101134.78;;;7.56;100.00
64192;BME280;50497;50.720;-2.084;2022-10-16T07:33:45;101132.13;;;7.56;100.00
64192;BME280;50497;50.720;-2.084;2022-10-16T07:36:10;101128.59;;;7.56;100.00
64192;BME280;50497;50.720;-2.084;2022-10-16T07:38:36;101129.38;;;7.59;100.00
64192;BME280;50497;50.720;-2.084;2022-10-16T07:41:04;101117.13;;;7.54;100.00
64192;BME280;50497;50.720;-2.084;2022-10-16T07:43:30;101110.09;;;7.51;100.00
64192;BME280;50497;50.720;-2.084;2022-10-16T07:45:56;101130.91;;;7.68;100.00
64192;BME280;50497;50.720;-2.084;2022-10-16T07:48:23;101125.53;;;7.70;100.00
64192;BME280;50497;50.720;-2.084;2022-10-16T07:50:49;101134.94;;;7.82;100.00
64192;BME280;50497;50.720;-2.084;2022-10-16T07:53:14;101132.28;;;7.82;100.00
64192;BME280;50497;50.720;-2.084;2022-10-16T07:55:40;101142.72;;;7.89;100.00
64192;BME280;50497;50.720;-2.084;2022-10-16T07:58:06;101130.41;;;7.85;100.00
64192;BME280;50497;50.720;-2.084;2022-10-16T08:00:32;101134.69;;;7.91;100.00
64192;BME280;50497;50.720;-2.084;2022-10-16T08:02:58;101137.94;;;8.01;100.00
64192;BME280;50497;50.720;-2.084;2022-10-16T08:05:31;101142.06;;;8.11;100.00
64192;BME280;50497;50.720;-2.084;2022-10-16T08:07:58;101151.66;;;8.17;100.00
64192;BME280;50497;50.720;-2.084;2022-10-16T08:10:25;101165.75;;;8.22;100.00
64192;BME280;50497;50.720;-2.084;2022-10-16T08:12:51;101153.38;;;8.19;100.00
64192;BME280;50497;50.720;-2.084;2022-10-16T08:15:18;101164.53;;;8.32;100.00
64192;BME280;50497;50.720;-2.084;2022-10-16T08:17:44;101169.44;;;8.46;100.00
64192;BME280;50497;50.720;-2.084;2022-10-16T08:20:10;101159.69;;;8.45;100.00
64192;BME280;50497;50.720;-2.084;2022-10-16T08:22:35;101149.66;;;8.53;100.00
64192;BME280;50497;50.720;-2.084;2022-10-16T08:25:01;101172.88;;;8.78;100.00
64192;BME280;50497;50.720;-2.084;2022-10-16T08:27:35;101172.97;;;8.75;100.00
64192;BME280;50497;50.720;-2.084;2022-10-16T08:30:00;101181.38;;;8.89;100.00
64192;BME280;50497;50.720;-2.084;2022-10-16T08:32:26;101181.19;;;8.95;100.00
64192;BME280;50497;50.720;-2.084;2022-10-16T08:34:51;101184.16;;;9.13;100.00
64192;BME280;50497;50.720;-2.084;2022-10-16T08:37:17;101176.84;;;9.18;100.00
64192;BME280;50497;50.720;-2.084;2022-10-16T08:39:42;101188.53;;;9.40;100.00
64192;BME280;50497;50.720;-2.084;2022-10-16T08:47:49;101200.31;;;10.31;100.00
64192;BME280;50497;50.720;-2.084;2022-10-16T08:50:25;101196.41;;;10.63;100.00
64192;BME280;50497;50.720;-2.084;2022-10-16T08:52:52;101192.63;;;10.91;100.00
64192;BME280;50497;50.720;-2.084;2022-10-16T08:57:54;101195.38;;;11.10;100.00
64192;BME280;50497;50.720;-2.084;2022-10-16T09:00:20;101203.84;;;11.62;100.00
64192;BME280;50497;50.720;-2.084;2022-10-16T09:02:55;101206.50;;;11.83;100.00
64192;BME280;50497;50.720;-2.084;2022-10-16T09:05:42;101204.47;;;11.88;100.00
64192;BME280;50497;50.720;-2.084;2022-10-16T09:08:28;101196.50;;;11.87;100.00
64192;BME280;50497;50.720;-2.084;2022-10-16T09:10:59;101206.72;;;11.99;100.00
64192;BME280;50497;50.720;-2.084;2022-10-16T09:13:41;101202.00;;;12.04;100.00
64192;BME280;50497;50.720;-2.084;2022-10-16T09:16:19;101197.03;;;12.15;100.00
64192;BME280;50497;50.720;-2.084;2022-10-16T09:19:14;101199.53;;;12.18;100.00
64192;BME280;50497;50.720;-2.084;2022-10-16T09:21:44;101202.53;;;12.12;100.00
64192;BME280;50497;50.720;-2.084;2022-10-16T09:24:20;101201.81;;;12.47;100.00
64192;BME280;50497;50.720;-2.084;2022-10-16T09:26:46;101193.44;;;12.53;100.00
64192;BME280;50497;50.720;-2.084;2022-10-16T09:29:15;101200.50;;;12.55;100.00
64192;BME280;50497;50.720;-2.084;2022-10-16T09:31:41;101202.00;;;12.61;100.00
64192;BME280;50497;50.720;-2.084;2022-10-16T09:36:44;101198.91;;;12.88;100.00
64192;BME280;50497;50.720;-2.084;2022-10-16T09:39:11;101221.19;;;12.90;100.00
64192;BME280;50497;50.720;-2.084;2022-10-16T09:41:39;101218.66;;;12.87;100.00
64192;BME280;50497;50.720;-2.084;2022-10-16T09:44:29;101211.47;;;12.87;100.00
64192;BME280;50497;50.720;-2.084;2022-10-16T09:47:03;101189.41;;;12.81;100.00
64192;BME280;50497;50.720;-2.084;2022-10-16T09:49:29;101204.91;;;12.93;100.00
64192;BME280;50497;50.720;-2.084;2022-10-16T09:52:15;101213.00;;;13.10;100.00
64192;BME280;50497;50.720;-2.084;2022-10-16T09:54:55;101210.59;;;13.41;100.00
64192;BME280;50497;50.720;-2.084;2022-10-16T09:57:22;101210.50;;;13.42;100.00
64192;BME280;50497;50.720;-2.084;2022-10-16T09:59:55;101208.06;;;13.55;100.00
64192;BME280;50497;50.720;-2.084;2022-10-16T10:02:30;101208.63;;;13.95;100.00
64192;BME280;50497;50.720;-2.084;2022-10-16T10:04:57;101199.56;;;14.30;100.00
64192;BME280;50497;50.720;-2.084;2022-10-16T10:07:33;101197.66;;;14.95;100.00
64192;BME280;50497;50.720;-2.084;2022-10-16T10:10:04;101173.63;;;15.37;100.00
64192;BME280;50497;50.720;-2.084;2022-10-16T10:12:32;101189.66;;;15.55;100.00
64192;BME280;50497;50.720;-2.084;2022-10-16T10:15:20;101180.69;;;15.68;100.00
64192;BME280;50497;50.720;-2.084;2022-10-16T10:17:51;101173.16;;;15.45;100.00
64192;BME280;50497;50.720;-2.084;2022-10-16T10:20:35;101161.38;;;15.31;100.00
64192;BME280;50497;50.720;-2.084;2022-10-16T10:23:21;101177.50;;;15.17;100.00
64192;BME280;50497;50.720;-2.084;2022-10-16T10:34:44;101184.41;;;15.07;100.00
64192;BME280;50497;50.720;-2.084;2022-10-16T10:37:27;101185.59;;;15.17;100.00
64192;BME280;50497;50.720;-2.084;2022-10-16T10:40:15;101180.69;;;15.54;100.00
64192;BME280;50497;50.720;-2.084;2022-10-16T10:45:47;101175.34;;;15.83;100.00
64192;BME280;50497;50.720;-2.084;2022-10-16T10:51:31;101156.97;;;15.45;100.00
64192;BME280;50497;50.720;-2.084;2022-10-16T11:02:31;101156.81;;;16.20;100.00
64192;BME280;50497;50.720;-2.084;2022-10-16T11:10:27;101158.00;;;15.87;100.00
64192;BME280;50497;50.720;-2.084;2022-10-16T11:13:33;101170.09;;;15.65;100.00
64192;BME280;50497;50.720;-2.084;2022-10-16T11:16:07;101138.50;;;15.53;100.00
64192;BME280;50497;50.720;-2.084;2022-10-16T11:21:31;101167.09;;;15.41;100.00
64192;BME280;50497;50.720;-2.084;2022-10-16T11:24:04;101182.25;;;15.73;100.00
64192;BME280;50497;50.720;-2.084;2022-10-16T11:26:34;101180.16;;;15.78;100.00
64192;BME280;50497;50.720;-2.084;2022-10-16T11:29:04;101160.28;;;15.64;100.00
64192;BME280;50497;50.720;-2.084;2022-10-16T11:31:42;101151.13;;;15.52;100.00
64192;BME280;50497;50.720;-2.084;2022-10-16T11:36:51;101167.34;;;16.52;100.00
64192;BME280;50497;50.720;-2.084;2022-10-16T11:39:25;101147.13;;;16.44;100.00
64192;BME280;50497;50.720;-2.084;2022-10-16T11:47:35;101115.56;;;16.72;100.00
64192;BME280;50497;50.720;-2.084;2022-10-16T11:55:56;101110.31;;;16.84;100.00
64192;BME280;50497;50.720;-2.084;2022-10-16T11:59:02;101105.97;;;17.08;100.00
64192;BME280;50497;50.720;-2.084;2022-10-16T12:04:25;101123.31;;;17.70;100.00
64192;BME280;50497;50.720;-2.084;2022-10-16T12:07:07;101093.22;;;17.10;100.00
64192;BME280;50497;50.720;-2.084;2022-10-16T12:09:37;101110.91;;;17.02;100.00
64192;BME280;50497;50.720;-2.084;2022-10-16T12:12:02;101115.69;;;16.71;100.00
64192;BME280;50497;50.720;-2.084;2022-10-16T12:14:37;101106.72;;;16.43;100.00
64192;BME280;50497;50.720;-2.084;2022-10-16T12:17:24;101105.97;;;16.26;100.00
64192;BME280;50497;50.720;-2.084;2022-10-16T12:22:36;101088.63;;;16.58;100.00
64192;BME280;50497;50.720;-2.084;2022-10-16T12:25:02;101079.56;;;17.25;100.00
64192;BME280;50497;50.720;-2.084;2022-10-16T12:27:32;101087.88;;;17.99;100.00
64192;BME280;50497;50.720;-2.084;2022-10-16T12:30:03;101073.84;;;18.90;100.00
64192;BME280;50497;50.720;-2.084;2022-10-16T12:32:39;101059.88;;;19.75;100.00
64192;BME280;50497;50.720;-2.084;2022-10-16T12:35:16;101057.38;;;20.18;100.00
64192;BME280;50497;50.720;-2.084;2022-10-16T12:37:50;101047.69;;;19.36;100.00
64192;BME280;50497;50.720;-2.084;2022-10-16T12:40:36;101063.63;;;19.05;100.00
64192;BME280;50497;50.720;-2.084;2022-10-16T12:46:03;101062.78;;;18.21;100.00
64192;BME280;50497;50.720;-2.084;2022-10-16T12:48:32;101058.41;;;18.07;100.00
64192;BME280;50497;50.720;-2.084;2022-10-16T12:51:10;101070.69;;;17.61;100.00
64192;BME280;50497;50.720;-2.084;2022-10-16T12:53:35;101071.25;;;17.28;100.00
64192;BME280;50497;50.720;-2.084;2022-10-16T13:01:37;101056.19;;;17.62;100.00
64192;BME280;50497;50.720;-2.084;2022-10-16T13:18:13;101074.81;;;16.62;100.00
64192;BME280;50497;50.720;-2.084;2022-10-16T13:23:59;101057.59;;;16.51;100.00
64192;BME280;50497;50.720;-2.084;2022-10-16T13:26:38;101072.13;;;16.35;100.00
64192;BME280;50497;50.720;-2.084;2022-10-16T13:29:05;101064.16;;;16.19;100.00
64192;BME280;50497;50.720;-2.084;2022-10-16T13:31:36;101084.94;;;16.04;100.00
64192;BME280;50497;50.720;-2.084;2022-10-16T13:34:02;101086.06;;;16.15;100.00
64192;BME280;50497;50.720;-2.084;2022-10-16T13:36:34;101061.44;;;15.92;100.00
64192;BME280;50497;50.720;-2.084;2022-10-16T13:39:29;101086.50;;;15.94;100.00
64192;BME280;50497;50.720;-2.084;2022-10-16T13:42:01;101078.22;;;15.97;100.00
64192;BME280;50497;50.720;-2.084;2022-10-16T13:44:43;101076.75;;;16.06;100.00
64192;BME280;50497;50.720;-2.084;2022-10-16T13:47:26;101064.34;;;15.89;100.00
64192;BME280;50497;50.720;-2.084;2022-10-16T13:50:09;101066.63;;;15.95;100.00
64192;BME280;50497;50.720;-2.084;2022-10-16T13:52:36;101072.13;;;15.94;100.00
64192;BME280;50497;50.720;-2.084;2022-10-16T13:55:04;101064.53;;;16.00;100.00
64192;BME280;50497;50.720;-2.084;2022-10-16T13:57:35;101069.13;;;15.98;100.00
64192;BME280;50497;50.720;-2.084;2022-10-16T14:00:01;101068.19;;;15.99;100.00
64192;BME280;50497;50.720;-2.084;2022-10-16T14:02:30;101066.16;;;15.88;100.00
64192;BME280;50497;50.720;-2.084;2022-10-16T14:04:57;101061.47;;;15.78;100.00
64192;BME280;50497;50.720;-2.084;2022-10-16T14:07:27;101060.28;;;15.67;100.00
64192;BME280;50497;50.720;-2.084;2022-10-16T14:10:05;101035.53;;;15.46;100.00
64192;BME280;50497;50.720;-2.084;2022-10-16T14:12:35;101044.03;;;15.55;100.00
64192;BME280;50497;50.720;-2.084;2022-10-16T14:15:00;101045.66;;;15.43;100.00
64192;BME280;50497;50.720;-2.084;2022-10-16T14:17:32;101031.19;;;15.44;100.00
64192;BME280;50497;50.720;-2.084;2022-10-16T14:20:05;101043.72;;;15.45;100.00
64192;BME280;50497;50.720;-2.084;2022-10-16T14:22:42;101026.88;;;15.56;100.00
64192;BME280;50497;50.720;-2.084;2022-10-16T14:31:03;101038.63;;;15.40;100.00
64192;BME280;50497;50.720;-2.084;2022-10-16T14:33:45;101026.97;;;15.40;100.00
64192;BME280;50497;50.720;-2.084;2022-10-16T14:36:12;101011.19;;;15.33;100.00